createdAt,value
2017-04-19T00:00:01.117Z,101885.83
2017-04-19T00:01:05.651Z,101888.12
2017-04-19T00:02:09.824Z,101892.62
2017-04-19T00:03:12.078Z,101899.36
2017-04-19T00:04:14.012Z,101898.06
2017-04-19T00:05:15.743Z,101897.64
2017-04-19T00:06:18.246Z,101888.05
2017-04-19T00:07:21.866Z,101889.77
2017-04-19T00:08:25.108Z,101891.13
2017-04-19T00:09:27.272Z,101894.71
2017-04-19T00:10:29.770Z,101891.06
2017-04-19T00:11:31.233Z,101895.14
2017-04-19T00:12:36.423Z,101885.69
2017-04-19T00:13:38.908Z,101896.07
2017-04-19T00:14:39.604Z,101891.98
2017-04-19T00:15:45.114Z,101895.64
2017-04-19T00:16:48.347Z,101890.20
2017-04-19T00:17:49.149Z,101893.78
2017-04-19T00:18:50.455Z,101891.56
2017-04-19T00:19:52.668Z,101891.06
2017-04-19T00:20:53.752Z,101893.35
2017-04-19T00:21:55.886Z,101885.62
2017-04-19T00:23:00.348Z,101887.05
2017-04-19T00:24:03.811Z,101890.13
2017-04-19T00:25:05.426Z,101886.48
2017-04-19T00:26:06.996Z,101890.63
2017-04-19T00:27:08.703Z,101886.05
2017-04-19T00:28:12.859Z,101887.05
2017-04-19T00:29:15.522Z,101879.39
2017-04-19T00:30:17.495Z,101890.34
2017-04-19T00:31:22.264Z,101884.91
2017-04-19T00:32:23.939Z,101882.75
2017-04-19T00:33:26.238Z,101888.62
2017-04-19T00:34:27.990Z,101886.83
2017-04-19T00:35:30.866Z,101885.97
2017-04-19T00:36:32.635Z,101885.11
2017-04-19T00:37:35.583Z,101889.62
2017-04-19T00:38:37.451Z,101883.95
2017-04-19T00:39:39.159Z,101880.81
2017-04-19T00:40:41.402Z,101876.30
2017-04-19T00:41:43.163Z,101880.02
2017-04-19T00:42:44.689Z,101878.33
2017-04-19T00:43:45.779Z,101883.34
2017-04-19T00:44:47.952Z,101881.98
2017-04-19T00:45:49.490Z,101882.48
2017-04-19T00:46:51.635Z,101875.25
2017-04-19T00:47:53.209Z,101881.27
2017-04-19T00:48:53.428Z,101884.91
2017-04-19T00:49:56.543Z,101883.05
2017-04-19T00:51:00.719Z,101880.83
2017-04-19T00:52:01.387Z,101883.12
2017-04-19T00:53:03.450Z,101879.11
2017-04-19T00:54:04.639Z,101878.97
2017-04-19T00:55:05.457Z,101877.41
2017-04-19T00:56:07.438Z,101876.30
2017-04-19T00:57:08.143Z,101875.66
2017-04-19T00:58:12.163Z,101874.09
2017-04-19T00:59:13.938Z,101881.11
2017-04-19T01:00:17.276Z,101874.60
2017-04-19T01:01:19.630Z,101874.96
2017-04-19T01:02:21.072Z,101876.01
2017-04-19T01:03:22.096Z,101875.87
2017-04-19T01:04:22.998Z,101876.59
2017-04-19T01:05:26.047Z,101874.66
2017-04-19T01:06:28.126Z,101871.36
2017-04-19T01:07:28.890Z,101876.66
2017-04-19T01:08:30.975Z,101864.35
2017-04-19T01:09:33.710Z,101870.55
2017-04-19T01:10:36.570Z,101869.72
2017-04-19T01:11:37.360Z,101870.55
2017-04-19T01:12:38.256Z,101871.41
2017-04-19T01:13:40.590Z,101876.85
2017-04-19T01:14:41.468Z,101876.85
2017-04-19T01:15:42.661Z,101874.48
2017-04-19T01:16:44.750Z,101870.48
2017-04-19T01:17:46.551Z,101876.71
2017-04-19T01:18:50.241Z,101879.29
2017-04-19T01:19:52.539Z,101875.71
2017-04-19T01:20:54.445Z,101876.71
2017-04-19T01:22:00.825Z,101878.93
2017-04-19T01:23:07.841Z,101880.72
2017-04-19T01:24:09.120Z,101876.64
2017-04-19T01:25:10.549Z,101878.93
2017-04-19T01:26:12.446Z,101879.43
2017-04-19T01:27:14.799Z,101874.13
2017-04-19T01:28:16.295Z,101874.06
2017-04-19T01:29:16.804Z,101879.57
2017-04-19T01:30:18.259Z,101887.73
2017-04-19T01:31:20.382Z,101882.30
2017-04-19T01:32:21.166Z,101880.50
2017-04-19T01:33:21.863Z,101881.11
2017-04-19T01:34:23.295Z,101887.12
2017-04-19T01:35:24.343Z,101883.03
2017-04-19T01:36:25.079Z,101892.20
2017-04-19T01:37:27.255Z,101893.92
2017-04-19T01:38:32.204Z,101892.98
2017-04-19T01:39:33.792Z,101892.62
2017-04-19T01:40:35.231Z,101894.98
2017-04-19T01:41:37.255Z,101890.98
2017-04-19T01:42:38.947Z,101887.83
2017-04-19T01:43:42.141Z,101895.20
2017-04-19T01:44:44.462Z,101889.33
2017-04-19T01:45:45.318Z,101903.00
2017-04-19T01:46:46.565Z,101895.70
2017-04-19T01:47:48.426Z,101900.64
2017-04-19T01:48:51.007Z,101900.78
2017-04-19T01:49:52.455Z,101900.78
2017-04-19T01:50:53.271Z,101900.85
2017-04-19T01:51:53.602Z,101905.43
2017-04-19T01:52:55.355Z,101898.70
2017-04-19T01:53:56.970Z,101897.77
2017-04-19T01:54:57.970Z,101899.27
2017-04-19T01:55:58.847Z,101898.94
2017-04-19T01:57:03.431Z,101903.16
2017-04-19T01:58:04.618Z,101900.52
2017-04-19T01:59:05.867Z,101900.08
2017-04-19T02:00:07.905Z,101895.14
2017-04-19T02:01:09.027Z,101896.14
2017-04-19T02:02:10.495Z,101899.79
2017-04-19T02:03:11.968Z,101904.80
2017-04-19T02:04:13.222Z,101899.86
2017-04-19T02:05:15.251Z,101902.58
2017-04-19T02:06:22.527Z,101900.50
2017-04-19T02:07:28.218Z,101901.42
2017-04-19T02:08:29.260Z,101906.37
2017-04-19T02:09:31.463Z,101908.16
2017-04-19T02:10:34.751Z,101902.42
2017-04-19T02:11:35.911Z,101914.73
2017-04-19T02:12:36.747Z,101911.95
2017-04-19T02:13:38.787Z,101909.30
2017-04-19T02:14:40.624Z,101912.45
2017-04-19T02:15:46.099Z,101913.81
2017-04-19T02:16:48.019Z,101913.38
2017-04-19T02:17:53.089Z,101909.36
2017-04-19T02:18:56.546Z,101914.38
2017-04-19T02:19:59.532Z,101914.38
2017-04-19T02:21:02.279Z,101911.30
2017-04-19T02:22:04.958Z,101914.62
2017-04-19T02:23:07.846Z,101916.48
2017-04-19T02:24:09.645Z,101915.05
2017-04-19T02:25:13.205Z,101922.91
2017-04-19T02:26:17.649Z,101923.91
2017-04-19T02:27:19.123Z,101919.54
2017-04-19T02:28:21.410Z,101926.27
2017-04-19T02:29:22.273Z,101918.32
2017-04-19T02:30:24.648Z,101920.11
2017-04-19T02:31:26.319Z,101920.97
2017-04-19T02:32:28.590Z,101919.04
2017-04-19T02:33:29.619Z,101922.76
2017-04-19T02:34:31.418Z,101926.41
2017-04-19T02:35:34.099Z,101927.84
2017-04-19T02:36:35.875Z,101921.61
2017-04-19T02:37:37.268Z,101921.61
2017-04-19T02:38:38.623Z,101929.41
2017-04-19T02:39:40.211Z,101924.39
2017-04-19T02:40:42.094Z,101928.97
2017-04-19T02:41:43.547Z,101934.91
2017-04-19T02:42:45.759Z,101930.41
2017-04-19T02:43:47.624Z,101935.77
2017-04-19T02:44:48.822Z,101931.83
2017-04-19T02:45:49.246Z,101938.37
2017-04-19T02:46:50.402Z,101933.00
2017-04-19T02:47:52.200Z,101929.91
2017-04-19T02:48:53.201Z,101931.84
2017-04-19T02:49:58.783Z,101934.20
2017-04-19T02:51:00.092Z,101937.91
2017-04-19T02:52:00.610Z,101941.13
2017-04-19T02:53:02.020Z,101938.48
2017-04-19T02:54:05.230Z,101934.55
2017-04-19T02:55:06.727Z,101930.46
2017-04-19T02:56:07.655Z,101940.72
2017-04-19T02:57:09.431Z,101936.70
2017-04-19T02:58:10.287Z,101936.05
2017-04-19T02:59:11.287Z,101942.55
2017-04-19T03:00:12.626Z,101939.53
2017-04-19T03:01:13.831Z,101941.53
2017-04-19T03:02:14.623Z,101935.30
2017-04-19T03:03:16.288Z,101932.75
2017-04-19T03:04:17.146Z,101937.33
2017-04-19T03:05:19.508Z,101933.25
2017-04-19T03:06:21.107Z,101942.04
2017-04-19T03:07:23.423Z,101936.23
2017-04-19T03:08:24.386Z,101945.25
2017-04-19T03:09:28.219Z,101937.73
2017-04-19T03:10:29.301Z,101943.17
2017-04-19T03:11:31.478Z,101938.95
2017-04-19T03:12:33.200Z,101942.17
2017-04-19T03:13:34.802Z,101944.89
2017-04-19T03:14:36.211Z,101938.53
2017-04-19T03:15:37.946Z,101942.17
2017-04-19T03:16:39.519Z,101939.89
2017-04-19T03:17:41.799Z,101944.89
2017-04-19T03:18:43.022Z,101940.75
2017-04-19T03:19:46.010Z,101944.83
2017-04-19T03:20:47.332Z,101943.46
2017-04-19T03:21:48.958Z,101938.53
2017-04-19T03:22:50.910Z,101941.31
2017-04-19T03:23:52.163Z,101941.25
2017-04-19T03:24:53.639Z,101946.25
2017-04-19T03:25:55.507Z,101949.83
2017-04-19T03:26:57.330Z,101947.11
2017-04-19T03:27:59.235Z,101947.11
2017-04-19T03:29:01.327Z,101953.41
2017-04-19T03:30:03.344Z,101948.11
2017-04-19T03:31:04.679Z,101947.97
2017-04-19T03:32:07.903Z,101949.33
2017-04-19T03:33:09.244Z,101952.84
2017-04-19T03:34:10.563Z,101956.42
2017-04-19T03:35:11.963Z,101951.91
2017-04-19T03:36:13.444Z,101946.84
2017-04-19T03:37:16.396Z,101947.27
2017-04-19T03:38:18.375Z,101949.39
2017-04-19T03:39:21.263Z,101952.11
2017-04-19T03:40:23.996Z,101943.39
2017-04-19T03:41:26.093Z,101954.69
2017-04-19T03:42:31.135Z,101951.34
2017-04-19T03:43:33.376Z,101950.84
2017-04-19T03:44:34.630Z,101958.00
2017-04-19T03:45:36.930Z,101952.92
2017-04-19T03:46:41.094Z,101957.00
2017-04-19T03:47:44.002Z,101955.71
2017-04-19T03:48:49.024Z,101954.85
2017-04-19T03:49:50.315Z,101957.50
2017-04-19T03:50:53.322Z,101960.65
2017-04-19T03:51:54.987Z,101963.38
2017-04-19T03:52:57.689Z,101968.44
2017-04-19T03:54:00.207Z,101965.73
2017-04-19T03:55:01.187Z,101962.14
2017-04-19T03:56:02.298Z,101968.58
2017-04-19T03:57:05.396Z,101966.29
2017-04-19T03:58:06.839Z,101962.78
2017-04-19T03:59:09.404Z,101969.64
2017-04-19T04:00:11.284Z,101966.92
2017-04-19T04:01:12.255Z,101962.05
2017-04-19T04:02:17.575Z,101969.88
2017-04-19T04:03:18.430Z,101961.42
2017-04-19T04:04:19.967Z,101976.45
2017-04-19T04:05:21.538Z,101976.14
2017-04-19T04:06:22.407Z,101980.36
2017-04-19T04:07:24.395Z,101977.21
2017-04-19T04:08:27.151Z,101981.36
2017-04-19T04:09:29.167Z,101987.36
2017-04-19T04:10:30.267Z,101982.84
2017-04-19T04:11:31.747Z,101983.77
2017-04-19T04:12:32.891Z,101980.33
2017-04-19T04:13:35.670Z,101977.28
2017-04-19T04:14:37.669Z,101984.21
2017-04-19T04:15:39.528Z,101990.57
2017-04-19T04:16:43.371Z,101982.55
2017-04-19T04:17:44.811Z,101992.63
2017-04-19T04:18:46.262Z,101989.55
2017-04-19T04:19:47.483Z,101989.62
2017-04-19T04:20:48.095Z,101985.67
2017-04-19T04:21:48.573Z,101991.17
2017-04-19T04:22:49.934Z,101990.38
2017-04-19T04:23:52.311Z,101991.91
2017-04-19T04:24:53.374Z,101994.69
2017-04-19T04:25:54.248Z,101991.67
2017-04-19T04:26:55.006Z,101986.44
2017-04-19T04:27:57.515Z,101990.58
2017-04-19T04:28:58.482Z,101995.22
2017-04-19T04:29:59.471Z,101991.70
2017-04-19T04:31:00.642Z,101991.77
2017-04-19T04:32:02.912Z,101992.70
2017-04-19T04:33:04.247Z,101993.75
2017-04-19T04:34:09.543Z,101996.58
2017-04-19T04:35:10.510Z,101993.13
2017-04-19T04:36:13.347Z,102002.20
2017-04-19T04:37:14.563Z,101995.11
2017-04-19T04:38:15.926Z,101994.31
2017-04-19T04:39:17.997Z,102003.39
2017-04-19T04:40:19.315Z,102003.89
2017-04-19T04:41:20.550Z,102000.25
2017-04-19T04:42:21.091Z,101999.75
2017-04-19T04:43:22.322Z,102001.54
2017-04-19T04:44:28.142Z,102010.55
2017-04-19T04:45:32.724Z,102010.98
2017-04-19T04:46:33.567Z,102006.05
2017-04-19T04:47:36.070Z,102005.98
2017-04-19T04:48:38.116Z,102013.27
2017-04-19T04:49:39.556Z,102012.77
2017-04-19T04:50:41.250Z,102009.19
2017-04-19T04:51:42.055Z,102012.91
2017-04-19T04:52:42.970Z,102019.13
2017-04-19T04:53:43.618Z,102015.05
2017-04-19T04:54:43.759Z,102019.99
2017-04-19T04:55:44.042Z,102026.72
2017-04-19T04:56:44.846Z,102024.92
2017-04-19T04:57:45.372Z,102026.78
2017-04-19T04:58:46.902Z,102023.14
2017-04-19T04:59:47.114Z,102028.08
2017-04-19T05:00:47.315Z,102027.64
2017-04-19T05:01:48.134Z,102024.92
2017-04-19T05:02:48.255Z,102028.57
2017-04-19T05:03:48.429Z,102018.63
2017-04-19T05:04:48.971Z,102027.64
2017-04-19T05:05:49.654Z,102034.87
2017-04-19T05:06:49.822Z,102026.72
2017-04-19T05:07:49.990Z,102019.92
2017-04-19T05:08:50.098Z,102023.50
2017-04-19T05:09:50.282Z,102026.66
2017-04-19T05:10:50.672Z,102018.94
2017-04-19T05:11:50.786Z,102023.37
2017-04-19T05:12:50.906Z,102022.95
2017-04-19T05:13:51.865Z,102029.23
2017-04-19T05:14:52.493Z,102024.17
2017-04-19T05:15:52.640Z,102027.31
2017-04-19T05:16:53.045Z,102029.01
2017-04-19T05:17:54.742Z,102027.58
2017-04-19T05:18:54.865Z,102035.23
2017-04-19T05:19:55.046Z,102035.17
2017-04-19T05:21:00.010Z,102033.38
2017-04-19T05:22:01.711Z,102033.81
2017-04-19T05:23:06.262Z,102038.32
2017-04-19T05:24:06.824Z,102036.03
2017-04-19T05:25:12.729Z,102036.47
2017-04-19T05:26:14.142Z,102041.90
2017-04-19T05:27:14.823Z,102038.25
2017-04-19T05:28:17.710Z,102040.41
2017-04-19T05:29:19.136Z,102045.41
2017-04-19T05:30:20.939Z,102039.48
2017-04-19T05:31:25.225Z,102045.41
2017-04-19T05:32:26.533Z,102046.70
2017-04-19T05:33:26.748Z,102045.78
2017-04-19T05:34:28.723Z,102043.92
2017-04-19T05:35:28.936Z,102044.72
2017-04-19T05:36:29.866Z,102046.94
2017-04-19T05:37:32.362Z,102044.78
2017-04-19T05:38:33.290Z,102047.80
2017-04-19T05:39:34.975Z,102053.23
2017-04-19T05:40:39.285Z,102045.22
2017-04-19T05:41:39.919Z,102051.58
2017-04-19T05:42:40.822Z,102058.44
2017-04-19T05:43:41.068Z,102052.57
2017-04-19T05:44:45.482Z,102058.44
2017-04-19T05:45:46.784Z,102055.72
2017-04-19T05:46:47.393Z,102058.37
2017-04-19T05:47:51.021Z,102054.72
2017-04-19T05:48:52.250Z,102055.95
2017-04-19T05:49:53.022Z,102067.19
2017-04-19T05:50:54.191Z,102058.11
2017-04-19T05:51:54.651Z,102060.89
2017-04-19T05:52:55.106Z,102059.59
2017-04-19T05:53:55.289Z,102063.67
2017-04-19T05:54:55.526Z,102059.66
2017-04-19T05:55:56.034Z,102062.38
2017-04-19T05:56:56.978Z,102063.24
2017-04-19T05:57:58.018Z,102071.95
2017-04-19T05:58:59.636Z,102075.17
2017-04-19T06:00:01.607Z,102070.23
2017-04-19T06:01:02.297Z,102070.73
2017-04-19T06:02:02.894Z,102072.71
2017-04-19T06:03:04.666Z,102074.00
2017-04-19T06:04:06.281Z,102080.73
2017-04-19T06:05:08.571Z,102073.08
2017-04-19T06:06:09.803Z,102084.81
2017-04-19T06:07:11.554Z,102073.08
2017-04-19T06:08:11.826Z,102082.52
2017-04-19T06:09:13.112Z,102081.16
2017-04-19T06:10:13.606Z,102081.16
2017-04-19T06:11:14.700Z,102083.02
2017-04-19T06:12:15.193Z,102075.80
2017-04-19T06:13:15.523Z,102080.80
2017-04-19T06:14:16.190Z,102089.44
2017-04-19T06:15:17.309Z,102084.64
2017-04-19T06:16:17.550Z,102087.48
2017-04-19T06:17:18.347Z,102091.36
2017-04-19T06:18:19.623Z,102097.17
2017-04-19T06:19:21.426Z,102099.66
2017-04-19T06:20:23.474Z,102105.31
2017-04-19T06:21:23.747Z,102097.36
2017-04-19T06:22:24.926Z,102100.70
2017-04-19T06:23:25.427Z,102097.25
2017-04-19T06:24:26.166Z,102098.23
2017-04-19T06:25:26.763Z,102108.73
2017-04-19T06:26:28.018Z,102104.30
2017-04-19T06:27:28.551Z,102110.16
2017-04-19T06:28:29.774Z,102103.23
2017-04-19T06:29:31.678Z,102105.39
2017-04-19T06:30:32.058Z,102111.06
2017-04-19T06:31:33.970Z,102108.66
2017-04-19T06:32:35.483Z,102107.50
2017-04-19T06:33:35.873Z,102112.25
2017-04-19T06:34:37.164Z,102107.91
2017-04-19T06:35:38.127Z,102111.98
2017-04-19T06:36:40.108Z,102111.60
2017-04-19T06:37:42.239Z,102112.60
2017-04-19T06:38:42.430Z,102113.03
2017-04-19T06:39:51.389Z,102113.33
2017-04-19T06:40:53.449Z,102114.44
2017-04-19T06:41:55.316Z,102116.09
2017-04-19T06:42:58.560Z,102108.74
2017-04-19T06:43:59.495Z,102108.52
2017-04-19T06:45:01.439Z,102104.54
2017-04-19T06:46:03.186Z,102111.94
2017-04-19T06:47:08.207Z,102112.67
2017-04-19T06:48:10.545Z,102109.95
2017-04-19T06:49:10.770Z,102107.48
2017-04-19T06:50:13.063Z,102109.50
2017-04-19T06:51:13.201Z,102113.34
2017-04-19T06:52:15.018Z,102109.44
2017-04-19T06:53:15.126Z,102118.26
2017-04-19T06:54:15.287Z,102108.48
2017-04-19T06:55:16.290Z,102108.55
2017-04-19T06:56:16.525Z,102113.72
2017-04-19T06:57:17.965Z,102114.15
2017-04-19T06:58:18.951Z,102113.45
2017-04-19T06:59:19.622Z,102124.27
2017-04-19T07:00:19.846Z,102120.38
2017-04-19T07:01:19.963Z,102116.54
2017-04-19T07:02:20.076Z,102119.98
2017-04-19T07:03:23.391Z,102123.50
2017-04-19T07:04:24.386Z,102115.64
2017-04-19T07:05:26.127Z,102116.87
2017-04-19T07:06:27.267Z,102119.89
2017-04-19T07:07:29.191Z,102118.95
2017-04-19T07:08:35.322Z,102120.02
2017-04-19T07:09:35.942Z,102120.38
2017-04-19T07:10:36.066Z,102121.61
2017-04-19T07:11:39.860Z,102119.68
2017-04-19T07:12:44.451Z,102123.33
2017-04-19T07:13:50.566Z,102116.33
2017-04-19T07:14:52.881Z,102123.62
2017-04-19T07:15:53.806Z,102116.62
2017-04-19T07:16:53.955Z,102121.07
2017-04-19T07:17:54.113Z,102119.11
2017-04-19T07:18:54.537Z,102121.77
2017-04-19T07:19:55.477Z,102120.44
2017-04-19T07:20:56.580Z,102122.36
2017-04-19T07:21:57.743Z,102113.20
2017-04-19T07:23:00.220Z,102118.01
2017-04-19T07:24:00.952Z,102119.23
2017-04-19T07:25:01.126Z,102125.90
2017-04-19T07:26:01.239Z,102123.45
2017-04-19T07:27:01.352Z,102116.88
2017-04-19T07:28:01.483Z,102121.68
2017-04-19T07:29:01.586Z,102122.84
2017-04-19T07:30:01.727Z,102124.92
2017-04-19T07:31:01.830Z,102125.62
2017-04-19T07:32:02.188Z,102124.55
2017-04-19T07:33:02.306Z,102128.00
2017-04-19T07:34:03.275Z,102130.09
2017-04-19T07:35:03.425Z,102127.16
2017-04-19T07:36:03.551Z,102115.77
2017-04-19T07:37:03.662Z,102130.01
2017-04-19T07:38:03.990Z,102127.65
2017-04-19T07:39:04.176Z,102128.44
2017-04-19T07:40:04.315Z,102126.02
2017-04-19T07:41:04.433Z,102132.75
2017-04-19T07:42:04.894Z,102123.02
2017-04-19T07:43:07.266Z,102129.75
2017-04-19T07:44:08.131Z,102129.02
2017-04-19T07:45:09.410Z,102125.73
2017-04-19T07:46:11.095Z,102124.44
2017-04-19T07:47:14.396Z,102129.24
2017-04-19T07:48:15.796Z,102140.92
2017-04-19T07:49:17.466Z,102142.22
2017-04-19T07:50:17.834Z,102133.41
2017-04-19T07:51:17.978Z,102131.98
2017-04-19T07:52:18.111Z,102142.37
2017-04-19T07:53:18.241Z,102146.19
2017-04-19T07:54:20.878Z,102146.81
2017-04-19T07:55:23.980Z,102142.31
2017-04-19T07:56:24.491Z,102146.13
2017-04-19T07:57:27.302Z,102138.86
2017-04-19T07:58:28.418Z,102149.55
2017-04-19T07:59:30.054Z,102146.34
2017-04-19T08:00:30.191Z,102148.66
2017-04-19T08:01:30.310Z,102146.30
2017-04-19T08:02:30.438Z,102150.59
2017-04-19T08:03:30.577Z,102147.95
2017-04-19T08:04:31.478Z,102150.58
2017-04-19T08:05:33.217Z,102158.69
2017-04-19T08:06:33.991Z,102153.72
2017-04-19T08:07:34.117Z,102150.21
2017-04-19T08:08:34.210Z,102154.52
2017-04-19T08:09:34.330Z,102153.80
2017-04-19T08:10:35.885Z,102172.93
2017-04-19T08:11:37.042Z,102163.83
2017-04-19T08:12:37.172Z,102162.18
2017-04-19T08:13:37.264Z,102168.53
2017-04-19T08:14:38.131Z,102165.81
2017-04-19T08:15:38.262Z,102175.25
2017-04-19T08:16:38.406Z,102160.69
2017-04-19T08:17:38.514Z,102171.06
2017-04-19T08:18:43.181Z,102172.14
2017-04-19T08:19:50.718Z,102175.02
2017-04-19T08:20:54.923Z,102181.11
2017-04-19T08:21:56.298Z,102185.31
2017-04-19T08:22:57.279Z,102173.75
2017-04-19T08:23:58.172Z,102184.88
2017-04-19T08:25:01.367Z,102186.39
2017-04-19T08:26:02.990Z,102177.95
2017-04-19T08:27:04.266Z,102182.69
2017-04-19T08:28:10.906Z,102178.88
2017-04-19T08:29:13.154Z,102178.87
2017-04-19T08:30:15.219Z,102189.33
2017-04-19T08:31:25.878Z,102192.63
2017-04-19T08:32:29.245Z,102188.48
2017-04-19T08:33:30.084Z,102189.99
2017-04-19T08:34:32.319Z,102188.34
2017-04-19T08:35:33.382Z,102190.77
2017-04-19T08:36:37.031Z,102190.09
2017-04-19T08:37:38.611Z,102189.08
2017-04-19T08:38:47.831Z,102187.86
2017-04-19T08:39:50.450Z,102185.41
2017-04-19T08:40:53.606Z,102195.95
2017-04-19T08:41:53.778Z,102196.06
2017-04-19T08:42:53.869Z,102187.80
2017-04-19T08:43:53.971Z,102190.38
2017-04-19T08:44:54.090Z,102196.69
2017-04-19T08:45:54.496Z,102187.52
2017-04-19T08:46:54.630Z,102201.08
2017-04-19T08:47:54.740Z,102191.83
2017-04-19T08:48:54.839Z,102191.16
2017-04-19T08:49:55.166Z,102192.98
2017-04-19T08:50:55.547Z,102198.93
2017-04-19T08:51:55.702Z,102201.36
2017-04-19T08:52:55.792Z,102202.75
2017-04-19T08:53:55.902Z,102202.30
2017-04-19T08:54:56.007Z,102202.30
2017-04-19T08:55:56.117Z,102200.19
2017-04-19T08:56:56.239Z,102198.73
2017-04-19T08:57:56.342Z,102194.39
2017-04-19T08:58:56.449Z,102202.13
2017-04-19T08:59:56.554Z,102207.50
2017-04-19T09:00:56.642Z,102198.64
2017-04-19T09:01:56.753Z,102205.75
2017-04-19T09:02:56.853Z,102208.86
2017-04-19T09:03:56.998Z,102201.56
2017-04-19T09:04:57.102Z,102201.88
2017-04-19T09:05:57.259Z,102200.73
2017-04-19T09:06:57.382Z,102200.28
2017-04-19T09:07:57.526Z,102196.09
2017-04-19T09:08:57.658Z,102200.19
2017-04-19T09:09:57.774Z,102199.56
2017-04-19T09:10:57.865Z,102202.75
2017-04-19T09:11:57.997Z,102207.38
2017-04-19T09:12:58.086Z,102204.21
2017-04-19T09:13:58.194Z,102207.23
2017-04-19T09:14:58.298Z,102209.78
2017-04-19T09:15:58.402Z,102207.05
2017-04-19T09:16:58.537Z,102202.90
2017-04-19T09:17:58.641Z,102205.31
2017-04-19T09:18:58.736Z,102201.77
2017-04-19T09:19:58.870Z,102211.61
2017-04-19T09:20:58.994Z,102217.38
2017-04-19T09:21:59.139Z,102207.90
2017-04-19T09:22:59.248Z,102205.84
2017-04-19T09:23:59.360Z,102199.28
2017-04-19T09:25:00.219Z,102209.33
2017-04-19T09:26:00.427Z,102213.66
2017-04-19T09:27:00.618Z,102208.30
2017-04-19T09:28:00.749Z,102201.89
2017-04-19T09:29:00.858Z,102187.39
2017-04-19T09:30:01.003Z,102192.00
2017-04-19T09:31:01.207Z,102209.81
2017-04-19T09:32:02.095Z,102195.73
2017-04-19T09:33:02.217Z,102192.89
2017-04-19T09:34:02.314Z,102196.92
2017-04-19T09:35:02.418Z,102201.05
2017-04-19T09:36:02.545Z,102195.97
2017-04-19T09:37:02.670Z,102200.33
2017-04-19T09:38:02.763Z,102205.38
2017-04-19T09:39:02.868Z,102211.23
2017-04-19T09:40:02.963Z,102199.45
2017-04-19T09:41:03.078Z,102201.62
2017-04-19T09:42:03.202Z,102212.48
2017-04-19T09:43:03.302Z,102200.96
2017-04-19T09:44:03.442Z,102197.88
2017-04-19T09:45:03.556Z,102201.77
2017-04-19T09:46:03.670Z,102206.76
2017-04-19T09:47:04.540Z,102204.44
2017-04-19T09:48:04.662Z,102208.12
2017-04-19T09:49:04.786Z,102206.13
2017-04-19T09:50:04.936Z,102210.50
2017-04-19T09:51:05.778Z,102207.30
2017-04-19T09:52:06.037Z,102205.38
2017-04-19T09:53:06.186Z,102208.03
2017-04-19T09:54:06.338Z,102205.84
2017-04-19T09:55:06.463Z,102209.64
2017-04-19T09:56:06.578Z,102208.89
2017-04-19T09:57:06.746Z,102201.87
2017-04-19T09:58:07.166Z,102213.98
2017-04-19T09:59:07.262Z,102216.98
2017-04-19T10:00:07.378Z,102208.24
2017-04-19T10:01:07.481Z,102207.47
2017-04-19T10:02:07.622Z,102219.55
2017-04-19T10:03:07.762Z,102210.59
2017-04-19T10:04:07.862Z,102213.98
2017-04-19T10:05:07.984Z,102215.51
2017-04-19T10:06:08.094Z,102210.02
2017-04-19T10:07:08.231Z,102216.51
2017-04-19T10:08:08.382Z,102219.73
2017-04-19T10:09:08.550Z,102222.20
2017-04-19T10:10:08.673Z,102219.97
2017-04-19T10:11:08.794Z,102225.89
2017-04-19T10:12:08.945Z,102222.03
2017-04-19T10:13:09.122Z,102225.17
2017-04-19T10:14:10.101Z,102225.17
2017-04-19T10:15:10.254Z,102225.63
2017-04-19T10:16:10.369Z,102227.34
2017-04-19T10:17:10.495Z,102223.69
2017-04-19T10:18:10.686Z,102215.47
2017-04-19T10:19:10.826Z,102224.98
2017-04-19T10:20:10.933Z,102215.05
2017-04-19T10:21:11.066Z,102214.45
2017-04-19T10:22:11.195Z,102206.16
2017-04-19T10:23:11.332Z,102234.14
2017-04-19T10:24:11.515Z,102222.91
2017-04-19T10:25:11.623Z,102220.33
2017-04-19T10:26:11.770Z,102227.77
2017-04-19T10:27:11.972Z,102223.19
2017-04-19T10:28:12.172Z,102233.40
2017-04-19T10:29:12.278Z,102220.02
2017-04-19T10:30:12.387Z,102233.05
2017-04-19T10:31:13.234Z,102216.03
2017-04-19T10:32:13.346Z,102229.05
2017-04-19T10:33:13.488Z,102228.07
2017-04-19T10:34:13.634Z,102231.23
2017-04-19T10:35:13.758Z,102220.55
2017-04-19T10:36:13.890Z,102227.23
2017-04-19T10:37:14.014Z,102237.26
2017-04-19T10:38:14.215Z,102229.04
2017-04-19T10:39:14.342Z,102220.55
2017-04-19T10:40:14.522Z,102217.45
2017-04-19T10:41:14.641Z,102222.83
2017-04-19T10:42:17.544Z,102226.94
2017-04-19T10:43:18.688Z,102233.36
2017-04-19T10:44:19.067Z,102226.83
2017-04-19T10:45:19.605Z,102230.11
2017-04-19T10:46:20.584Z,102221.89
2017-04-19T10:47:20.834Z,102223.32
2017-04-19T10:48:23.759Z,102226.09
2017-04-19T10:49:25.167Z,102226.65
2017-04-19T10:50:25.374Z,102229.86
2017-04-19T10:51:25.923Z,102227.42
2017-04-19T10:52:26.509Z,102226.92
2017-04-19T10:53:26.744Z,102227.30
2017-04-19T10:54:26.927Z,102223.00
2017-04-19T10:55:27.138Z,102230.20
2017-04-19T10:56:27.281Z,102226.69
2017-04-19T10:57:27.486Z,102225.56
2017-04-19T10:58:27.645Z,102233.87
2017-04-19T10:59:27.782Z,102236.03
2017-04-19T11:00:27.945Z,102237.56
2017-04-19T11:01:28.062Z,102232.16
2017-04-19T11:02:28.945Z,102229.59
2017-04-19T11:03:29.391Z,102236.85
2017-04-19T11:04:30.748Z,102244.30
2017-04-19T11:05:30.870Z,102241.73
2017-04-19T11:06:31.005Z,102229.53
2017-04-19T11:07:31.805Z,102235.86
2017-04-19T11:08:32.318Z,102237.45
2017-04-19T11:09:33.372Z,102253.09
2017-04-19T11:10:34.150Z,102251.22
2017-04-19T11:11:34.604Z,102248.72
2017-04-19T11:12:35.185Z,102254.09
2017-04-19T11:13:37.707Z,102257.66
2017-04-19T11:14:38.266Z,102260.28
2017-04-19T11:15:38.402Z,102264.08
2017-04-19T11:16:39.326Z,102264.47
2017-04-19T11:17:39.439Z,102255.23
2017-04-19T11:18:39.615Z,102257.77
2017-04-19T11:19:39.766Z,102265.36
2017-04-19T11:20:39.884Z,102262.62
2017-04-19T11:21:40.013Z,102264.62
2017-04-19T11:22:40.225Z,102267.05
2017-04-19T11:23:40.513Z,102268.50
2017-04-19T11:24:42.083Z,102257.16
2017-04-19T11:25:43.786Z,102260.44
2017-04-19T11:26:44.287Z,102263.41
2017-04-19T11:27:44.969Z,102251.55
2017-04-19T11:28:45.798Z,102247.73
2017-04-19T11:29:46.074Z,102247.95
2017-04-19T11:30:47.096Z,102250.98
2017-04-19T11:31:47.294Z,102251.81
2017-04-19T11:32:47.476Z,102253.91
2017-04-19T11:33:47.858Z,102262.55
2017-04-19T11:34:49.938Z,102258.19
2017-04-19T11:35:50.505Z,102264.53
2017-04-19T11:36:50.622Z,102261.63
2017-04-19T11:37:50.722Z,102257.01
2017-04-19T11:38:50.861Z,102250.42
2017-04-19T11:39:50.994Z,102246.57